createdAt,value
2022-11-15T00:00:56.576Z,92.10
2022-11-15T00:03:26.135Z,92.10
2022-11-15T00:05:53.146Z,92.20
2022-11-15T00:08:20.490Z,92.50
2022-11-15T00:10:57.849Z,92.40
2022-11-15T00:13:25.026Z,92.50
2022-11-15T00:15:52.110Z,92.60
2022-11-15T00:18:19.531Z,92.50
2022-11-15T00:20:46.244Z,92.30
2022-11-15T00:23:13.265Z,92.50
2022-11-15T00:25:40.217Z,92.00
2022-11-15T00:28:06.955Z,91.90
2022-11-15T00:30:33.778Z,92.20
2022-11-15T00:33:05.554Z,92.40
2022-11-15T00:35:34.379Z,92.80
2022-11-15T00:38:02.207Z,92.50
2022-11-15T00:40:29.257Z,92.50
2022-11-15T00:42:56.318Z,92.50
2022-11-15T00:45:23.736Z,92.40
2022-11-15T00:47:50.753Z,92.70
2022-11-15T00:50:17.875Z,92.60
2022-11-15T00:52:45.262Z,92.50
2022-11-15T00:55:17.278Z,92.60
2022-11-15T00:57:44.103Z,92.60
2022-11-15T01:00:12.354Z,92.60
2022-11-15T01:02:39.218Z,92.40
2022-11-15T01:05:06.762Z,92.30
2022-11-15T01:07:33.606Z,92.10
2022-11-15T01:10:00.426Z,92.30
2022-11-15T01:12:27.250Z,92.20
2022-11-15T01:14:53.977Z,91.90
2022-11-15T01:17:20.709Z,91.40
2022-11-15T01:19:47.491Z,91.10
2022-11-15T01:22:14.234Z,90.90
2022-11-15T01:24:40.978Z,91.10
2022-11-15T01:27:08.324Z,91.00
2022-11-15T01:29:35.262Z,90.60
2022-11-15T01:32:02.165Z,90.50
2022-11-15T01:34:29.075Z,90.30
2022-11-15T01:36:55.842Z,90.20
2022-11-15T01:39:22.607Z,90.30
2022-11-15T01:41:49.402Z,90.10
2022-11-15T01:44:34.861Z,89.40
2022-11-15T01:47:13.228Z,89.60
2022-11-15T01:49:50.015Z,90.00
2022-11-15T01:52:20.209Z,89.90
2022-11-15T01:54:49.275Z,89.60
2022-11-15T01:57:16.085Z,90.00
2022-11-15T01:59:45.703Z,90.10
2022-11-15T02:02:13.093Z,90.20
2022-11-15T02:04:45.552Z,90.20
2022-11-15T02:07:15.991Z,90.10
2022-11-15T02:09:43.326Z,90.10
2022-11-15T02:12:13.389Z,89.40
2022-11-15T02:14:41.830Z,88.50
2022-11-15T02:17:36.151Z,88.50
2022-11-15T02:20:41.629Z,88.70
2022-11-15T02:23:26.696Z,88.50
2022-11-15T02:26:02.221Z,87.80
2022-11-15T02:28:50.732Z,87.90
2022-11-15T02:31:30.450Z,88.20
2022-11-15T02:34:28.144Z,88.10
2022-11-15T02:37:12.602Z,88.80
2022-11-15T02:39:45.315Z,89.10
2022-11-15T02:42:45.038Z,89.40
2022-11-15T02:45:18.540Z,89.60
2022-11-15T02:47:49.394Z,90.10
2022-11-15T02:50:19.545Z,90.00
2022-11-15T02:52:47.862Z,90.20
2022-11-15T02:55:29.643Z,90.20
2022-11-15T02:58:16.084Z,90.60
2022-11-15T03:01:06.332Z,90.70
2022-11-15T03:04:06.559Z,90.40
2022-11-15T03:06:59.500Z,90.20
2022-11-15T03:09:57.669Z,90.00
2022-11-15T03:12:49.113Z,90.00
2022-11-15T03:15:33.502Z,89.70
2022-11-15T03:18:13.599Z,89.50
2022-11-15T03:20:41.047Z,89.20
2022-11-15T03:23:11.068Z,89.40
2022-11-15T03:25:43.636Z,89.10
2022-11-15T03:28:13.355Z,89.20
2022-11-15T03:30:41.211Z,88.50
2022-11-15T03:33:09.946Z,88.20
2022-11-15T03:35:43.294Z,87.10
2022-11-15T03:38:27.389Z,87.10
2022-11-15T03:41:04.138Z,86.80
2022-11-15T03:43:39.626Z,87.00
2022-11-15T03:46:16.050Z,86.30
2022-11-15T03:48:51.703Z,86.70
2022-11-15T03:51:19.454Z,86.00
2022-11-15T03:53:46.931Z,86.30
2022-11-15T03:56:13.655Z,86.90
2022-11-15T03:58:40.461Z,86.80
2022-11-15T04:01:07.367Z,87.20
2022-11-15T04:03:34.388Z,86.10
2022-11-15T04:06:01.393Z,86.10
2022-11-15T04:08:28.075Z,85.70
2022-11-15T04:10:54.851Z,85.50
2022-11-15T04:13:22.284Z,84.70
2022-11-15T04:15:48.994Z,85.20
2022-11-15T04:18:15.969Z,84.60
2022-11-15T04:21:00.993Z,84.40
2022-11-15T04:23:46.508Z,84.20
2022-11-15T04:26:19.185Z,83.60
2022-11-15T04:29:04.675Z,83.30
2022-11-15T04:31:31.356Z,83.50
2022-11-15T04:33:58.173Z,84.00
2022-11-15T04:36:43.513Z,83.60
2022-11-15T04:39:10.533Z,83.10
2022-11-15T04:41:37.226Z,83.20
2022-11-15T04:44:03.939Z,83.30
2022-11-15T04:46:30.655Z,83.10
2022-11-15T04:48:59.203Z,83.30
2022-11-15T04:51:26.643Z,82.90
2022-11-15T04:53:53.866Z,83.10
2022-11-15T04:56:20.831Z,83.20
2022-11-15T04:58:50.651Z,83.90
2022-11-15T05:01:18.206Z,83.00
2022-11-15T05:04:03.914Z,83.80
2022-11-15T05:06:30.974Z,84.90
2022-11-15T05:08:58.077Z,85.50
2022-11-15T05:11:24.859Z,85.30
2022-11-15T05:13:51.875Z,85.00
2022-11-15T05:16:18.679Z,85.30
2022-11-15T05:18:45.535Z,84.90
2022-11-15T05:21:15.037Z,84.80
2022-11-15T05:23:42.161Z,84.30
2022-11-15T05:26:09.901Z,84.40
2022-11-15T05:28:37.910Z,84.40
2022-11-15T05:31:06.599Z,83.60
2022-11-15T05:33:34.943Z,83.00
2022-11-15T05:36:16.365Z,83.40
2022-11-15T05:38:43.433Z,83.80
2022-11-15T05:41:10.806Z,83.00
2022-11-15T05:43:41.221Z,82.90
2022-11-15T05:46:08.153Z,82.60
2022-11-15T05:48:37.136Z,83.10
2022-11-15T05:51:08.292Z,83.00
2022-11-15T05:53:36.888Z,82.80
2022-11-15T05:56:05.151Z,82.90
2022-11-15T05:58:33.607Z,83.30
2022-11-15T06:01:01.284Z,82.60
2022-11-15T06:03:28.281Z,82.80
2022-11-15T06:05:55.233Z,82.90
2022-11-15T06:08:21.957Z,83.40
2022-11-15T06:10:48.864Z,83.80
2022-11-15T06:13:15.625Z,83.80
2022-11-15T06:15:42.324Z,84.00
2022-11-15T06:18:09.049Z,83.80
2022-11-15T06:20:35.818Z,84.00
2022-11-15T06:23:04.910Z,83.70
2022-11-15T06:25:32.208Z,83.80
2022-11-15T06:27:59.973Z,84.00
2022-11-15T06:30:27.900Z,83.50
2022-11-15T06:33:02.613Z,84.00
2022-11-15T06:35:30.544Z,84.30
2022-11-15T06:37:57.485Z,84.70
2022-11-15T06:40:24.209Z,84.70
2022-11-15T06:42:50.982Z,84.90
2022-11-15T06:45:17.727Z,84.90
2022-11-15T06:47:47.791Z,84.90
2022-11-15T06:50:14.835Z,84.80
2022-11-15T06:52:41.618Z,85.40
2022-11-15T06:55:09.302Z,85.60
2022-11-15T06:57:36.720Z,85.20
2022-11-15T07:00:07.181Z,84.10
2022-11-15T07:02:33.925Z,84.30
2022-11-15T07:05:00.656Z,84.00
2022-11-15T07:07:27.553Z,84.20
2022-11-15T07:09:54.402Z,84.30
2022-11-15T07:12:21.387Z,84.00
2022-11-15T07:14:48.058Z,84.60
2022-11-15T07:17:14.880Z,85.20
2022-11-15T07:19:41.647Z,84.60
2022-11-15T07:22:08.418Z,84.70
2022-11-15T07:24:35.122Z,84.30
2022-11-15T07:27:01.966Z,83.60
2022-11-15T07:29:28.950Z,83.00
2022-11-15T07:31:55.914Z,83.60
2022-11-15T07:34:23.120Z,83.60
2022-11-15T07:36:49.973Z,82.60
2022-11-15T07:39:16.775Z,79.70
2022-11-15T07:41:44.529Z,75.40
2022-11-15T07:44:11.303Z,71.40
2022-11-15T07:46:38.041Z,67.20
2022-11-15T07:49:04.872Z,65.60
2022-11-15T07:51:32.214Z,64.50
2022-11-15T07:53:58.985Z,63.90
2022-11-15T07:56:25.733Z,62.90
2022-11-15T07:58:52.497Z,62.00
2022-11-15T08:01:19.395Z,60.70
2022-11-15T08:03:46.208Z,62.20
2022-11-15T08:06:12.945Z,64.20
2022-11-15T08:08:39.650Z,63.70
2022-11-15T08:11:06.406Z,64.90
2022-11-15T08:13:33.566Z,65.40
2022-11-15T08:16:02.161Z,66.20
2022-11-15T08:18:28.909Z,65.10
2022-11-15T08:21:00.540Z,66.70
2022-11-15T08:23:27.443Z,67.80
2022-11-15T08:25:59.440Z,69.10
2022-11-15T08:28:26.236Z,69.70
2022-11-15T08:30:52.982Z,70.10
2022-11-15T08:33:19.796Z,69.70
2022-11-15T08:35:46.666Z,69.10
2022-11-15T08:38:14.060Z,68.40
2022-11-15T08:40:41.322Z,67.40
2022-11-15T08:43:08.200Z,67.60
2022-11-15T08:45:36.205Z,66.50
2022-11-15T08:48:04.529Z,65.60
2022-11-15T08:50:31.603Z,64.80
2022-11-15T08:52:58.434Z,65.80
2022-11-15T08:55:25.236Z,64.40
2022-11-15T08:57:52.083Z,65.20
2022-11-15T09:00:21.027Z,65.30
2022-11-15T09:02:47.942Z,64.30
2022-11-15T09:05:16.511Z,64.60
2022-11-15T09:07:43.375Z,64.40
2022-11-15T09:10:10.354Z,63.90
2022-11-15T09:12:37.187Z,63.00
2022-11-15T09:15:05.161Z,63.00
2022-11-15T09:17:31.899Z,62.50
2022-11-15T09:19:58.613Z,61.00
2022-11-15T09:22:25.362Z,61.00
2022-11-15T09:24:52.059Z,60.60
2022-11-15T09:27:18.797Z,60.60
2022-11-15T09:29:45.508Z,60.60
2022-11-15T09:32:12.263Z,59.10
2022-11-15T09:34:38.992Z,56.90
2022-11-15T09:37:05.769Z,56.50
2022-11-15T09:39:32.889Z,54.10
2022-11-15T09:42:19.554Z,53.90
2022-11-15T09:45:05.713Z,54.40
2022-11-15T09:47:32.387Z,51.90
2022-11-15T09:50:01.550Z,50.40
2022-11-15T09:52:28.904Z,49.70
2022-11-15T09:54:56.373Z,49.20
2022-11-15T09:57:32.267Z,50.60
2022-11-15T10:03:17.476Z,46.70
2022-11-15T10:05:48.104Z,45.90
2022-11-15T10:08:23.852Z,46.40
2022-11-15T10:13:52.630Z,43.40
2022-11-15T10:16:44.290Z,42.80
2022-11-15T10:19:32.041Z,41.70
2022-11-15T10:22:10.912Z,40.50
2022-11-15T10:24:45.813Z,41.70
2022-11-15T10:27:21.271Z,40.90
2022-11-15T10:29:49.903Z,40.00
2022-11-15T10:32:18.772Z,40.80
2022-11-15T10:34:46.434Z,41.30
2022-11-15T10:37:13.394Z,41.80
2022-11-15T10:39:40.448Z,41.70
2022-11-15T10:42:18.085Z,41.60
2022-11-15T10:44:45.854Z,42.30
2022-11-15T10:47:28.229Z,43.30
2022-11-15T10:50:25.531Z,43.80
2022-11-15T10:52:52.501Z,44.40
2022-11-15T10:55:23.252Z,44.30
2022-11-15T10:58:10.967Z,44.00
2022-11-15T11:00:40.274Z,44.10
2022-11-15T11:03:33.200Z,44.70
2022-11-15T11:06:16.653Z,44.70
2022-11-15T11:08:59.980Z,44.20
2022-11-15T11:11:45.812Z,43.70
2022-11-15T11:14:14.650Z,44.50
2022-11-15T11:17:22.339Z,43.70
2022-11-15T11:20:28.559Z,44.80
2022-11-15T11:23:21.202Z,45.00
2022-11-15T11:26:14.258Z,45.20
2022-11-15T11:28:45.992Z,45.80
2022-11-15T11:31:30.546Z,46.50
2022-11-15T11:34:16.045Z,47.30
2022-11-15T11:36:51.670Z,47.50
2022-11-15T11:39:45.287Z,47.60
2022-11-15T11:42:44.532Z,47.90
2022-11-15T11:45:47.357Z,47.60
2022-11-15T11:48:22.183Z,47.50
2022-11-15T11:50:50.082Z,46.60
2022-11-15T11:53:25.272Z,46.80
2022-11-15T11:55:59.879Z,46.20
2022-11-15T11:58:42.513Z,46.60
2022-11-15T12:01:12.774Z,46.30
2022-11-15T12:03:48.693Z,45.70
2022-11-15T12:06:18.543Z,44.20
2022-11-15T12:08:59.087Z,44.80
2022-11-15T12:11:51.282Z,44.00
2022-11-15T12:14:51.255Z,44.20
2022-11-15T12:17:22.682Z,44.60
2022-11-15T12:19:49.735Z,44.20
2022-11-15T12:22:23.811Z,43.80
2022-11-15T12:25:07.526Z,44.00
2022-11-15T12:27:42.362Z,42.90
2022-11-15T12:30:14.179Z,43.50
2022-11-15T12:32:53.768Z,42.90
2022-11-15T12:35:43.975Z,42.90
2022-11-15T12:38:12.715Z,42.80
2022-11-15T12:41:06.625Z,43.20
2022-11-15T12:43:41.005Z,42.90
2022-11-15T12:46:13.553Z,42.90
2022-11-15T12:48:40.210Z,44.10
2022-11-15T12:51:07.069Z,43.70
2022-11-15T12:53:35.984Z,44.10
2022-11-15T12:56:10.161Z,45.00
2022-11-15T12:58:57.122Z,45.60
2022-11-15T13:01:39.130Z,45.70
2022-11-15T13:04:21.118Z,45.60
2022-11-15T13:06:54.025Z,45.60
2022-11-15T13:09:38.642Z,44.80
2022-11-15T13:12:08.782Z,44.70
2022-11-15T13:14:38.656Z,44.30
2022-11-15T13:17:34.740Z,44.30
2022-11-15T13:20:04.739Z,44.60
2022-11-15T13:22:51.980Z,44.40
2022-11-15T13:25:21.779Z,44.20
2022-11-15T13:27:52.035Z,43.60
2022-11-15T13:30:24.412Z,43.70
2022-11-15T13:32:52.188Z,44.00
2022-11-15T13:35:28.204Z,44.50
2022-11-15T13:37:56.648Z,44.30
2022-11-15T13:40:35.964Z,44.70
2022-11-15T13:43:39.143Z,44.50
2022-11-15T13:46:17.868Z,44.70
2022-11-15T13:48:46.827Z,44.50
2022-11-15T13:51:40.000Z,44.60
2022-11-15T13:54:30.165Z,45.00
2022-11-15T13:56:59.714Z,45.30
2022-11-15T13:59:44.683Z,46.20
2022-11-15T14:02:20.799Z,46.10
2022-11-15T14:05:00.447Z,46.10
2022-11-15T14:07:29.798Z,46.20
2022-11-15T14:09:57.035Z,46.30
2022-11-15T14:12:36.577Z,46.50
2022-11-15T14:15:31.348Z,46.50
2022-11-15T14:17:58.245Z,46.50
2022-11-15T14:20:24.984Z,46.40
2022-11-15T14:23:03.325Z,46.20
2022-11-15T14:25:35.088Z,46.20
2022-11-15T14:28:10.619Z,46.50
2022-11-15T14:30:37.962Z,47.00
2022-11-15T14:33:18.539Z,47.60
2022-11-15T14:35:45.562Z,47.90
2022-11-15T14:38:12.262Z,48.30
2022-11-15T14:40:39.088Z,48.60
2022-11-15T14:43:05.829Z,49.30
2022-11-15T14:45:32.817Z,49.40
2022-11-15T14:47:59.527Z,49.50
2022-11-15T14:50:27.224Z,49.60
2022-11-15T14:52:53.999Z,49.60
2022-11-15T14:55:22.615Z,49.80
2022-11-15T14:57:49.398Z,49.80
2022-11-15T15:00:17.354Z,49.50
2022-11-15T15:02:46.054Z,49.40
2022-11-15T15:05:22.013Z,49.40
2022-11-15T15:07:49.267Z,49.50
2022-11-15T15:10:38.956Z,49.50
2022-11-15T15:13:05.820Z,49.60
2022-11-15T15:15:37.648Z,49.70
2022-11-15T15:18:05.884Z,49.70
2022-11-15T15:20:33.580Z,49.70
2022-11-15T15:23:00.321Z,49.50
2022-11-15T15:25:35.807Z,49.50
2022-11-15T15:28:03.302Z,49.90
2022-11-15T15:30:31.457Z,49.80
2022-11-15T15:32:58.225Z,51.20
2022-11-15T15:35:30.088Z,51.80
2022-11-15T15:37:56.803Z,52.30
2022-11-15T15:40:25.513Z,52.40
2022-11-15T15:42:52.257Z,52.80
2022-11-15T15:45:20.155Z,53.80
2022-11-15T15:47:47.757Z,54.40
2022-11-15T15:50:31.087Z,54.20
2022-11-15T15:53:00.185Z,54.00
2022-11-15T15:55:27.489Z,55.30
2022-11-15T15:57:54.697Z,56.20
2022-11-15T16:00:24.066Z,56.40
2022-11-15T16:02:50.925Z,56.80
2022-11-15T16:05:18.551Z,57.50
2022-11-15T16:07:47.311Z,58.00
2022-11-15T16:10:23.532Z,57.80
2022-11-15T16:12:50.301Z,57.30
2022-11-15T16:15:17.250Z,57.40
2022-11-15T16:17:54.641Z,57.80
2022-11-15T16:20:32.751Z,57.70
2022-11-15T16:23:04.384Z,58.30
2022-11-15T16:25:39.666Z,59.10
2022-11-15T16:28:15.520Z,59.80
2022-11-15T16:30:42.504Z,60.50
2022-11-15T16:33:09.260Z,60.10
2022-11-15T16:35:36.029Z,60.20
2022-11-15T16:38:02.867Z,60.00
2022-11-15T16:40:35.914Z,60.10
2022-11-15T16:43:04.489Z,60.60
2022-11-15T16:45:31.949Z,61.00
2022-11-15T16:47:58.778Z,61.10
2022-11-15T16:50:30.842Z,61.00
2022-11-15T16:52:58.950Z,60.30
2022-11-15T16:55:28.418Z,59.90
2022-11-15T16:57:58.165Z,60.60
2022-11-15T17:00:25.723Z,61.30
2022-11-15T17:02:53.444Z,62.00
2022-11-15T17:05:23.179Z,62.00
2022-11-15T17:07:54.122Z,62.30
2022-11-15T17:10:25.139Z,62.90
2022-11-15T17:12:53.008Z,63.30
2022-11-15T17:15:19.844Z,63.20
2022-11-15T17:17:52.844Z,63.00
2022-11-15T17:20:21.515Z,62.90
2022-11-15T17:22:48.460Z,63.00
2022-11-15T17:25:15.284Z,62.70
2022-11-15T17:27:42.036Z,62.30
2022-11-15T17:30:10.280Z,61.90
2022-11-15T17:32:37.652Z,62.50
2022-11-15T17:35:11.941Z,63.20
2022-11-15T17:37:41.910Z,63.40
2022-11-15T17:40:09.246Z,63.50
2022-11-15T17:42:36.001Z,63.20
2022-11-15T17:45:09.283Z,63.40
2022-11-15T17:47:36.837Z,64.40
2022-11-15T17:50:03.829Z,65.10
2022-11-15T17:52:30.652Z,67.20
2022-11-15T17:54:57.417Z,69.00
2022-11-15T17:57:24.187Z,69.10
2022-11-15T17:59:50.939Z,69.10
2022-11-15T18:02:17.629Z,69.50
2022-11-15T18:04:44.403Z,70.30
2022-11-15T18:07:12.470Z,70.40
2022-11-15T18:09:42.365Z,70.40
2022-11-15T18:12:10.200Z,70.70
2022-11-15T18:14:37.154Z,70.90
2022-11-15T18:17:03.895Z,70.50
2022-11-15T18:19:30.703Z,70.10
2022-11-15T18:21:57.610Z,68.30
2022-11-15T18:24:27.054Z,68.90
2022-11-15T18:26:54.197Z,69.50
2022-11-15T18:29:21.632Z,69.40
2022-11-15T18:31:50.508Z,68.90
2022-11-15T18:34:17.829Z,68.80
2022-11-15T18:36:44.671Z,67.50
2022-11-15T18:39:16.370Z,67.10
2022-11-15T18:41:44.615Z,66.80
2022-11-15T18:44:11.387Z,68.10
2022-11-15T18:46:39.429Z,68.60
2022-11-15T18:49:09.451Z,68.70
2022-11-15T18:51:37.964Z,68.90
2022-11-15T18:54:04.885Z,68.80
2022-11-15T18:56:32.759Z,68.60
2022-11-15T18:59:01.865Z,68.10
2022-11-15T19:01:33.924Z,68.10
2022-11-15T19:04:10.670Z,66.90
2022-11-15T19:06:42.856Z,67.80
2022-11-15T19:09:11.586Z,66.70
2022-11-15T19:11:40.043Z,66.50
2022-11-15T19:14:10.363Z,66.30
2022-11-15T19:16:40.219Z,66.20
2022-11-15T19:19:10.711Z,67.50
2022-11-15T19:21:38.372Z,67.50
2022-11-15T19:24:05.521Z,68.40
2022-11-15T19:26:32.308Z,68.40
2022-11-15T19:29:01.446Z,68.40
2022-11-15T19:31:29.909Z,68.20
2022-11-15T19:33:59.510Z,67.00
2022-11-15T19:36:32.595Z,66.80
2022-11-15T19:39:08.574Z,66.60
2022-11-15T19:41:37.901Z,66.50
2022-11-15T19:44:06.419Z,66.40
2022-11-15T19:46:34.770Z,66.60
2022-11-15T19:49:01.857Z,66.90
2022-11-15T19:51:30.986Z,66.80
2022-11-15T19:54:01.566Z,67.10
2022-11-15T19:56:28.342Z,66.80
2022-11-15T19:58:56.316Z,67.00
2022-11-15T20:01:25.737Z,67.40
2022-11-15T20:03:54.731Z,69.20
2022-11-15T20:06:33.440Z,70.40
2022-11-15T20:09:00.712Z,70.40
2022-11-15T20:11:27.932Z,70.50
2022-11-15T20:13:59.408Z,70.50
2022-11-15T20:16:26.472Z,70.20
2022-11-15T20:18:53.647Z,70.50
2022-11-15T20:21:21.875Z,70.50
2022-11-15T20:23:50.865Z,70.30
2022-11-15T20:26:18.979Z,70.00
2022-11-15T20:28:46.275Z,70.10
2022-11-15T20:31:13.588Z,70.10
2022-11-15T20:33:40.855Z,69.90
2022-11-15T20:36:13.041Z,69.80
2022-11-15T20:38:40.009Z,69.50
2022-11-15T20:41:07.478Z,70.20
2022-11-15T20:43:34.426Z,70.20
2022-11-15T20:46:01.268Z,70.00
2022-11-15T20:48:28.177Z,69.90
2022-11-15T20:51:08.028Z,69.70
2022-11-15T20:53:35.236Z,69.60
2022-11-15T20:56:12.830Z,69.80
2022-11-15T20:58:39.794Z,69.70
2022-11-15T21:01:08.248Z,69.70
2022-11-15T21:03:35.477Z,69.80
2022-11-15T21:06:03.139Z,70.10
2022-11-15T21:08:49.942Z,71.10
2022-11-15T21:11:35.206Z,70.20
2022-11-15T21:14:06.302Z,69.80
2022-11-15T21:16:35.596Z,69.00
2022-11-15T21:19:02.290Z,69.90
2022-11-15T21:21:29.531Z,69.70
2022-11-15T21:23:56.271Z,69.60
2022-11-15T21:26:23.132Z,69.40
2022-11-15T21:28:49.912Z,69.30
2022-11-15T21:31:16.730Z,69.30
2022-11-15T21:33:43.495Z,69.40
2022-11-15T21:36:10.279Z,69.70
2022-11-15T21:38:37.059Z,69.70
2022-11-15T21:41:04.411Z,70.10
2022-11-15T21:43:31.322Z,70.30
2022-11-15T21:46:02.434Z,70.20
2022-11-15T21:48:31.061Z,70.20
2022-11-15T21:50:59.590Z,70.40
2022-11-15T21:53:27.676Z,70.70
2022-11-15T21:55:54.602Z,71.20
2022-11-15T21:58:22.208Z,72.00
2022-11-15T22:01:07.741Z,72.20
2022-11-15T22:03:35.206Z,72.50
2022-11-15T22:06:02.110Z,72.30
2022-11-15T22:08:28.899Z,72.00
2022-11-15T22:10:56.830Z,72.30
2022-11-15T22:13:24.573Z,72.20
2022-11-15T22:15:51.743Z,72.40
2022-11-15T22:18:26.265Z,72.70
2022-11-15T22:21:02.335Z,73.10
2022-11-15T22:23:31.425Z,73.40
2022-11-15T22:25:58.425Z,72.90
2022-11-15T22:28:25.725Z,73.00
2022-11-15T22:30:53.831Z,72.90
2022-11-15T22:33:23.373Z,72.80
2022-11-15T22:35:50.273Z,72.50
2022-11-15T22:38:17.265Z,72.00
2022-11-15T22:40:44.702Z,71.60
2022-11-15T22:43:13.642Z,71.90
2022-11-15T22:45:49.528Z,71.90
2022-11-15T22:48:16.718Z,72.20
2022-11-15T22:50:44.373Z,72.10
2022-11-15T22:53:11.535Z,72.20
2022-11-15T22:55:41.717Z,72.60
2022-11-15T22:58:11.229Z,72.30
2022-11-15T23:00:38.063Z,72.30
2022-11-15T23:03:05.039Z,72.70
2022-11-15T23:05:31.890Z,72.40
2022-11-15T23:07:58.641Z,71.80
2022-11-15T23:10:43.896Z,71.60
2022-11-15T23:13:16.808Z,71.80
2022-11-15T23:16:04.164Z,70.30
2022-11-15T23:18:38.848Z,70.50
2022-11-15T23:21:11.631Z,69.50
2022-11-15T23:23:39.111Z,69.10
2022-11-15T23:26:05.927Z,69.00
2022-11-15T23:28:34.384Z,68.80
2022-11-15T23:31:24.806Z,69.00
2022-11-15T23:33:57.481Z,69.60
2022-11-15T23:36:28.431Z,69.50
2022-11-15T23:38:55.507Z,70.00
2022-11-15T23:41:23.832Z,69.20
2022-11-15T23:43:51.409Z,69.20
2022-11-15T23:46:18.315Z,69.30
2022-11-15T23:48:44.987Z,68.90
2022-11-15T23:51:11.821Z,68.50
2022-11-15T23:53:38.560Z,68.30
2022-11-15T23:56:12.424Z,68.20
2022-11-15T23:58:39.774Z,68.30
